Time;durP1;ratioP1;P1;durP2;ratioP2;P2;SDS_P1;SDS_P2;PMS_P1;PMS_P2;Temp;Humidity;BMP_temperature;BMP_pressure;BME280_temperature;BME280_humidity;BME280_pressure;Samples;Min_cycle;Max_cycle;Signal;HPM_P1;HPM_P2
2023/08/26 00:02:25;;;;;;;17.00;9.80;;;;;;;19.34;65.54;98716.95;109297;1256;74308;-23
2023/08/26 00:04:52;;;;;;;17.90;9.30;;;;;;;19.25;65.57;98718.78;109114;1255;71787;-23
2023/08/26 00:07:19;;;;;;;18.40;9.60;;;;;;;19.11;66.35;98720.96;109285;1256;61030;-23
2023/08/26 00:09:46;;;;;;;11.20;7.60;;;;;;;18.98;67.07;98720.52;109274;1257;60337;-23
2023/08/26 00:12:13;;;;;;;12.70;7.50;;;;;;;19.41;67.19;98720.09;109282;1257;72353;-24
2023/08/26 00:14:40;;;;;;;13.30;7.90;;;;;;;19.99;65.37;98716.80;109047;1257;72709;-23
2023/08/26 00:17:08;;;;;;;17.60;8.80;;;;;;;20.15;64.44;98715.03;109219;1257;73800;-23
2023/08/26 00:19:35;;;;;;;16.90;8.40;;;;;;;20.06;64.28;98708.48;109237;1257;60190;-23
2023/08/26 00:22:05;;;;;;;18.30;8.70;;;;;;;19.89;64.64;98712.07;109251;1256;61515;-23
2023/08/26 00:24:32;;;;;;;14.20;8.60;;;;;;;19.69;65.22;98714.00;109105;1257;73836;-23
2023/08/26 00:27:00;;;;;;;15.50;8.50;;;;;;;19.49;65.44;98714.22;109096;1257;75342;-23
2023/08/26 00:29:27;;;;;;;17.50;9.20;;;;;;;19.31;66.00;98712.91;109181;1257;73577;-23
2023/08/26 00:31:54;;;;;;;17.70;9.50;;;;;;;19.13;66.42;98711.11;109122;1257;60448;-23
2023/08/26 00:34:22;;;;;;;14.50;9.30;;;;;;;18.97;66.59;98708.58;109119;1257;61241;-23
2023/08/26 00:36:49;;;;;;;15.10;9.10;;;;;;;18.84;67.07;98707.85;109148;1257;73145;-23
2023/08/26 00:39:16;;;;;;;14.40;8.60;;;;;;;18.68;67.54;98706.42;109279;1256;74058;-23
2023/08/26 00:41:43;;;;;;;15.10;8.80;;;;;;;18.52;68.21;98707.10;109090;1257;73606;-23
2023/08/26 00:44:11;;;;;;;13.70;7.00;;;;;;;18.40;69.08;98704.88;109046;1257;63243;-25
2023/08/26 00:46:39;;;;;;;11.80;6.70;;;;;;;18.87;69.10;98707.14;108988;1257;61110;-23
2023/08/26 00:49:06;;;;;;;16.20;8.90;;;;;;;19.44;67.57;98709.05;109260;1256;74565;-23
2023/08/26 00:51:35;;;;;;;12.70;7.70;;;;;;;19.56;67.43;98706.70;109026;1257;75615;-23
2023/08/26 00:54:04;;;;;;;13.90;7.20;;;;;;;19.46;67.73;98707.09;109073;1257;73388;-23
2023/08/26 00:56:32;;;;;;;11.20;7.60;;;;;;;19.28;68.15;98708.23;109078;1257;60235;-23
2023/08/26 00:59:01;;;;;;;17.10;8.10;;;;;;;19.09;68.20;98710.88;109091;1255;60868;-23
2023/08/26 01:01:30;;;;;;;14.70;8.40;;;;;;;18.91;68.63;98708.13;109377;1256;73017;-23
2023/08/26 01:03:57;;;;;;;12.80;7.80;;;;;;;18.72;68.90;98699.98;109026;1257;75581;-23
2023/08/26 01:06:24;;;;;;;14.20;7.80;;;;;;;18.54;69.60;98700.09;109213;1257;72721;-23
2023/08/26 01:08:52;;;;;;;13.00;6.40;;;;;;;18.39;71.51;98694.09;108996;1257;61733;-23
2023/08/26 01:11:33;;;;;;;12.20;6.40;;;;;;;18.81;71.38;98694.05;109148;1256;60532;-23
2023/08/26 01:14:24;;;;;;;14.10;6.70;;;;;;;19.32;69.48;98689.27;109144;1257;74054;-23
2023/08/26 01:16:53;;;;;;;11.40;7.00;;;;;;;19.32;69.09;98692.80;109239;1256;74428;-23
2023/08/26 01:19:38;;;;;;;11.00;6.80;;;;;;;19.09;69.66;98691.48;109012;1256;72865;-23
2023/08/26 01:22:08;;;;;;;12.00;7.10;;;;;;;18.79;70.44;98688.94;108986;1256;59189;-23
2023/08/26 01:24:41;;;;;;;11.80;7.70;;;;;;;18.55;71.20;98691.98;109026;1257;60097;-24
2023/08/26 01:27:10;;;;;;;11.40;7.30;;;;;;;18.32;71.70;98696.35;109068;1256;73105;-23
2023/08/26 01:29:40;;;;;;;14.30;7.90;;;;;;;18.12;71.65;98697.27;109001;1256;74228;-23
2023/08/26 01:32:47;;;;;;;10.90;6.20;;;;;;;17.99;72.20;98699.02;109073;1257;73427;-23
2023/08/26 01:35:21;;;;;;;14.10;6.80;;;;;;;18.64;71.52;98699.07;109063;1256;58965;-23
2023/08/26 01:37:51;;;;;;;13.40;7.80;;;;;;;19.06;69.99;98698.18;109129;1256;60383;-23
2023/08/26 01:40:23;;;;;;;;;;;;;;;19.06;69.12;98697.70;109069;1257;73821;-23
2023/08/26 01:42:53;;;;;;;11.50;6.90;;;;;;;18.89;69.24;98691.30;109071;1256;74233;-23
2023/08/26 01:45:23;;;;;;;13.90;7.50;;;;;;;18.67;69.38;98688.15;108961;1262;72547;-23
2023/08/26 01:47:53;;;;;;;9.20;6.40;;;;;;;18.44;69.95;98686.11;108966;1256;60791;-23
2023/08/26 01:50:22;;;;;;;13.40;7.80;;;;;;;18.21;70.50;98680.05;109020;1256;60361;-23
2023/08/26 01:52:52;;;;;;;11.80;7.10;;;;;;;18.00;71.29;98682.56;108989;1257;73909;-23
2023/08/26 01:55:21;;;;;;;10.90;6.40;;;;;;;17.81;72.16;98687.32;109002;1257;74263;-23
2023/08/26 01:57:51;;;;;;;13.10;6.30;;;;;;;18.20;72.44;98686.14;109016;1256;72408;-23
2023/08/26 02:00:21;;;;;;;14.90;7.30;;;;;;;18.68;71.29;98682.04;109040;1257;58831;-23
2023/08/26 02:02:51;;;;;;;14.50;7.40;;;;;;;18.71;70.76;98680.32;109059;1257;58879;-23
2023/08/26 02:05:20;;;;;;;13.30;8.00;;;;;;;18.49;70.91;98673.89;109007;1257;74055;-23
2023/08/26 02:07:49;;;;;;;16.10;8.00;;;;;;;18.23;71.18;98672.98;109126;1257;73276;-23
2023/08/26 02:10:19;;;;;;;11.40;7.30;;;;;;;17.99;71.82;98670.42;109022;1257;71416;-23
2023/08/26 02:12:49;;;;;;;14.40;8.50;;;;;;;17.75;72.39;98678.39;108985;1257;61633;-23
2023/08/26 02:23:05;;;;;;;12.40;6.70;;;;;;;18.44;71.88;98674.56;102576;1295;600197;-21
2023/08/26 02:25:34;;;;;;;11.60;7.40;;;;;;;18.47;70.69;98676.06;104897;1267;61527;-21
2023/08/26 02:28:02;;;;;;;13.20;7.20;;;;;;;18.26;69.97;98677.02;104679;1269;61385;-21
2023/08/26 02:30:30;;;;;;;15.00;7.40;;;;;;;18.00;70.21;98675.02;104736;1273;73649;-21
2023/08/26 02:32:58;;;;;;;12.20;7.20;;;;;;;17.73;70.76;98673.05;104788;1272;74454;-21
2023/08/26 02:35:26;;;;;;;11.70;7.20;;;;;;;17.48;71.75;98671.33;104814;1270;76676;-21
2023/08/26 02:37:54;;;;;;;11.50;6.70;;;;;;;17.28;72.13;98669.14;102546;1272;3028498;-22
2023/08/26 02:40:22;;;;;;;9.80;6.10;;;;;;;17.09;72.33;98673.21;104857;1273;61419;-21
2023/08/26 02:42:50;;;;;;;15.00;6.30;;;;;;;17.44;72.53;98675.83;104782;1271;73607;-21
2023/08/26 02:45:18;;;;;;;13.20;6.70;;;;;;;17.90;70.86;98676.77;104861;1269;74443;-21
2023/08/26 02:47:46;;;;;;;10.30;6.40;;;;;;;17.92;70.40;98673.48;104710;1267;72767;-21
2023/08/26 02:50:17;;;;;;;13.70;6.70;;;;;;;17.69;70.74;98680.50;104773;1267;61507;-22
2023/08/26 02:52:45;;;;;;;15.90;7.50;;;;;;;17.43;70.86;98680.95;104895;1267;61166;-22
2023/08/26 02:55:12;;;;;;;14.00;7.60;;;;;;;17.19;70.95;98677.10;104692;1272;76952;-21
2023/08/26 02:57:40;;;;;;;17.30;8.50;;;;;;;17.00;71.37;98678.56;104789;1269;75757;-21
2023/08/26 03:00:09;;;;;;;14.50;8.10;;;;;;;16.83;71.73;98677.55;104863;1265;75208;-21
2023/08/26 03:02:37;;;;;;;15.10;7.70;;;;;;;16.63;72.17;98678.91;104857;1272;61931;-22
2023/08/26 03:05:08;;;;;;;9.50;5.40;;;;;;;16.48;73.01;98675.52;105139;1264;61949;-21
2023/08/26 03:07:36;;;;;;;18.80;6.20;;;;;;;16.95;73.13;98673.87;104919;1270;71860;-21
2023/08/26 03:10:05;;;;;;;12.00;6.60;;;;;;;17.51;71.77;98668.77;104862;1272;74554;-22
2023/08/26 03:12:33;;;;;;;14.00;7.30;;;;;;;17.59;71.14;98660.84;105014;1269;74655;-21
2023/08/26 03:15:01;;;;;;;14.20;7.50;;;;;;;17.43;71.08;98657.68;104847;1269;62026;-24
2023/08/26 03:17:29;;;;;;;16.20;7.60;;;;;;;17.21;71.48;98664.09;104764;1269;61420;-23
2023/08/26 03:19:57;;;;;;;21.70;8.20;;;;;;;16.99;71.87;98669.27;104821;1264;73120;-24
2023/08/26 03:22:25;;;;;;;17.30;7.90;;;;;;;16.77;72.33;98666.86;104865;1267;74850;-24
2023/08/26 03:24:53;;;;;;;14.30;6.20;;;;;;;16.56;73.45;98657.73;104750;1266;74861;-23
2023/08/26 03:27:22;;;;;;;11.70;5.40;;;;;;;16.94;74.34;98661.70;104807;1267;61337;-23
2023/08/26 03:29:52;;;;;;;18.60;8.10;;;;;;;17.44;73.13;98669.23;104739;1269;61025;-24
2023/08/26 03:32:20;;;;;;;21.90;7.80;;;;;;;17.49;72.18;98672.98;104830;1269;76869;-23
2023/08/26 03:34:48;;;;;;;15.60;6.90;;;;;;;17.33;72.25;98678.04;104841;1272;73337;-23
2023/08/26 03:37:16;;;;;;;12.30;7.60;;;;;;;17.15;72.42;98677.60;104833;1270;71772;-23
2023/08/26 03:39:44;;;;;;;17.90;7.60;;;;;;;16.98;72.97;98678.96;104730;1269;61818;-23
2023/08/26 03:42:12;;;;;;;14.60;7.40;;;;;;;16.80;73.21;98682.42;104799;1269;62461;-24
2023/08/26 03:44:39;;;;;;;15.60;5.90;;;;;;;16.65;73.92;98682.30;104797;1267;75240;-23
2023/08/26 03:47:07;;;;;;;12.60;6.20;;;;;;;17.13;73.85;98678.59;104711;1269;74501;-22
2023/08/26 03:49:35;;;;;;;14.70;6.80;;;;;;;17.78;72.00;98677.67;104856;1267;74129;-22
2023/08/26 03:52:03;;;;;;;11.40;6.40;;;;;;;18.01;70.47;98677.56;104791;1264;62284;-23
2023/08/26 03:54:31;;;;;;;13.70;7.20;;;;;;;17.94;70.55;98676.84;104881;1269;62463;-22
2023/08/26 03:57:01;;;;;;;16.30;7.10;;;;;;;17.93;70.32;98678.52;104905;1269;71872;-22
2023/08/26 03:59:29;;;;;;;15.70;7.40;;;;;;;17.96;70.25;98686.52;104766;1270;76769;-23
2023/08/26 04:01:57;;;;;;;19.40;7.50;;;;;;;17.97;70.27;98686.39;104780;1270;73896;-22
2023/08/26 04:04:26;;;;;;;15.50;7.50;;;;;;;18.06;70.07;98683.52;105069;1269;61574;-23
2023/08/26 04:06:55;;;;;;;13.80;5.80;;;;;;;18.18;70.03;98679.03;105299;1267;62631;-22
2023/08/26 04:09:24;;;;;;;14.20;5.80;;;;;;;18.90;69.26;98675.88;105220;1266;75482;-23
2023/08/26 04:11:51;;;;;;;15.90;6.90;;;;;;;19.70;67.21;98673.41;105345;1263;77111;-23
2023/08/26 04:14:19;;;;;;;15.00;6.80;;;;;;;20.01;65.72;98664.27;105369;1262;75151;-23
2023/08/26 04:16:47;;;;;;;13.40;7.20;;;;;;;20.08;65.22;98652.99;105353;1260;62512;-23
2023/08/26 04:19:16;;;;;;;26.40;7.90;;;;;;;20.06;64.96;98640.80;105443;1258;61070;-24
2023/08/26 04:21:44;;;;;;;15.60;7.80;;;;;;;20.01;64.62;98641.34;109073;1257;72107;-22
2023/08/26 04:24:12;;;;;;;19.80;7.70;;;;;;;20.00;64.62;98641.33;109015;1257;77153;-22
2023/08/26 04:26:40;;;;;;;19.00;8.30;;;;;;;19.98;64.53;98643.36;109043;1258;73551;-22
2023/08/26 04:29:07;;;;;;;24.30;8.30;;;;;;;19.95;64.41;98645.45;109050;1257;58846;-22
2023/08/26 04:31:35;;;;;;;15.00;7.60;;;;;;;19.91;64.25;98646.17;109067;1257;60115;-22
2023/08/26 04:34:03;;;;;;;13.10;7.80;;;;;;;19.97;64.62;98651.23;109074;1259;74043;-22
2023/08/26 04:36:31;;;;;;;13.50;7.40;;;;;;;20.07;64.42;98654.09;109086;1257;76412;-22
2023/08/26 04:38:58;;;;;;;13.20;7.40;;;;;;;20.12;64.08;98655.13;109041;1257;72122;-22
2023/08/26 04:41:26;;;;;;;21.70;8.30;;;;;;;20.16;63.19;98650.06;109057;1257;60154;-22
2023/08/26 04:43:54;;;;;;;13.50;7.20;;;;;;;20.13;63.60;98646.88;109114;1257;60648;-22
2023/08/26 04:46:23;;;;;;;14.90;8.60;;;;;;;20.13;62.69;98647.40;109074;1257;75108;-22
2023/08/26 04:48:51;;;;;;;14.70;8.20;;;;;;;20.14;62.65;98653.30;109025;1256;76762;-22
2023/08/26 04:51:19;;;;;;;17.30;8.50;;;;;;;20.17;62.54;98647.95;109118;1257;75619;-22
2023/08/26 04:53:47;;;;;;;12.60;7.80;;;;;;;20.16;62.36;98651.29;109072;1257;63444;-22
2023/08/26 04:56:15;;;;;;;16.90;8.10;;;;;;;20.10;61.73;98647.11;109144;1257;60168;-22
2023/08/26 04:58:43;;;;;;;14.80;7.50;;;;;;;20.02;62.34;98646.51;109125;1257;74047;-22
2023/08/26 05:01:10;;;;;;;13.30;8.30;;;;;;;20.07;62.27;98643.23;109072;1258;73246;-22
2023/08/26 05:03:38;;;;;;;16.50;8.80;;;;;;;20.24;62.28;98635.49;109084;1257;72765;-22
2023/08/26 05:06:06;;;;;;;14.60;8.30;;;;;;;20.53;61.79;98627.92;109100;1257;60240;-22
2023/08/26 05:08:33;;;;;;;13.70;7.90;;;;;;;20.70;60.65;98625.39;109122;1257;63738;-22
2023/08/26 05:11:01;;;;;;;17.90;8.70;;;;;;;20.82;60.46;98633.67;109117;1257;73111;-22
2023/08/26 05:13:29;;;;;;;14.50;8.50;;;;;;;20.89;60.12;98640.91;109102;1257;74526;-22
2023/08/26 05:15:57;;;;;;;14.30;8.30;;;;;;;20.97;59.74;98637.73;109050;1259;72720;-22
2023/08/26 05:18:24;;;;;;;14.80;8.40;;;;;;;20.94;59.76;98633.27;109034;1259;61058;-22
2023/08/26 05:20:52;;;;;;;12.90;8.10;;;;;;;20.99;59.74;98632.41;108957;1258;61047;-22
2023/08/26 05:23:20;;;;;;;14.70;8.70;;;;;;;21.00;59.78;98632.52;109051;1258;76515;-22
2023/08/26 05:25:47;;;;;;;16.30;8.80;;;;;;;21.10;60.21;98625.09;109044;1258;76321;-22
2023/08/26 05:28:16;;;;;;;15.60;8.60;;;;;;;21.34;59.91;98613.12;108927;1260;74063;-22
2023/08/26 05:30:44;;;;;;;17.50;8.20;;;;;;;21.60;59.12;98613.49;108952;1260;62510;-22
2023/08/26 05:33:13;;;;;;;15.70;7.80;;;;;;;21.85;58.99;98609.07;108972;1260;63046;-22
2023/08/26 05:35:42;;;;;;;14.00;8.10;;;;;;;22.09;58.07;98608.90;108948;1260;71859;-22
2023/08/26 05:38:10;;;;;;;11.70;7.80;;;;;;;22.22;58.10;98607.94;108874;1260;74622;-22
2023/08/26 05:40:38;;;;;;;12.10;7.40;;;;;;;22.36;58.04;98606.23;108987;1259;71456;-22
2023/08/26 05:43:05;;;;;;;11.70;7.90;;;;;;;22.45;58.10;98604.86;108948;1265;62157;-22
2023/08/26 05:45:35;;;;;;;12.00;7.20;;;;;;;22.57;58.40;98616.26;108979;1259;60947;-22
2023/08/26 05:48:03;;;;;;;13.30;7.80;;;;;;;22.71;57.89;98619.35;108983;1259;73987;-22
2023/08/26 05:50:32;;;;;;;15.20;8.60;;;;;;;22.69;56.87;98621.77;108990;1258;76698;-22
2023/08/26 05:53:00;;;;;;;10.10;7.60;;;;;;;22.46;56.82;98624.48;108933;1259;75046;-22
2023/08/26 05:55:28;;;;;;;13.60;8.50;;;;;;;22.37;57.51;98620.18;108957;1260;63658;-23
2023/08/26 05:57:56;;;;;;;12.80;7.70;;;;;;;22.31;57.43;98622.86;108952;1260;61403;-22
2023/08/26 06:00:26;;;;;;;13.90;8.20;;;;;;;22.34;57.66;98627.90;108963;1259;76463;-22
2023/08/26 06:02:53;;;;;;;13.80;7.40;;;;;;;22.42;57.76;98624.12;109041;1261;77942;-22
2023/08/26 06:05:22;;;;;;;12.60;7.70;;;;;;;22.50;58.27;98620.75;108960;1260;73098;-22
2023/08/26 06:07:51;;;;;;;13.50;8.30;;;;;;;22.69;58.33;98618.21;108937;1260;62513;-22
2023/08/26 06:10:21;;;;;;;14.30;7.60;;;;;;;22.91;58.02;98626.30;108983;1258;62074;-22
2023/08/26 06:12:49;;;;;;;14.70;7.30;;;;;;;23.12;57.40;98628.46;109022;1260;74896;-22
2023/08/26 06:15:19;;;;;;;13.00;6.60;;;;;;;23.33;56.70;98627.91;108973;1259;74431;-22
2023/08/26 06:17:46;;;;;;;11.10;6.70;;;;;;;23.50;56.74;98633.26;108922;1258;71447;-22
2023/08/26 06:20:18;;;;;;;12.20;7.50;;;;;;;23.72;56.35;98634.34;108918;1259;62201;-22
2023/08/26 06:22:46;;;;;;;10.40;7.60;;;;;;;23.96;55.84;98635.23;108941;1259;63107;-22
2023/08/26 06:25:14;;;;;;;15.00;8.10;;;;;;;24.14;55.28;98638.09;108930;1260;71875;-22
2023/08/26 06:27:42;;;;;;;10.60;7.20;;;;;;;24.19;54.89;98640.29;108926;1260;75326;-22
2023/08/26 06:30:11;;;;;;;13.20;7.70;;;;;;;24.36;54.72;98643.40;108908;1260;73503;-22
2023/08/26 06:32:39;;;;;;;13.00;8.20;;;;;;;24.56;54.56;98639.61;108918;1259;60233;-22
2023/08/26 06:35:08;;;;;;;14.10;7.70;;;;;;;24.77;53.81;98638.77;108940;1258;63571;-23
2023/08/26 06:37:36;;;;;;;13.90;7.80;;;;;;;24.92;53.61;98638.14;108902;1259;75918;-23
2023/08/26 06:40:05;;;;;;;14.30;7.20;;;;;;;25.07;53.54;98642.33;108938;1259;76366;-23
2023/08/26 06:42:32;;;;;;;15.00;7.90;;;;;;;25.19;53.28;98642.36;108836;1264;72731;-22
2023/08/26 06:45:02;;;;;;;12.30;7.30;;;;;;;25.26;53.15;98646.71;108890;1260;61947;-22
2023/08/26 06:47:30;;;;;;;15.30;8.40;;;;;;;25.34;53.10;98649.45;108986;1259;62339;-22
2023/08/26 06:49:57;;;;;;;12.60;8.00;;;;;;;25.40;53.02;98648.93;108986;1260;75873;-23
2023/08/26 06:52:27;;;;;;;18.00;8.70;;;;;;;25.43;52.95;98652.46;108971;1259;76359;-22
2023/08/26 06:54:55;;;;;;;19.00;8.20;;;;;;;25.48;52.81;98652.77;108965;1259;74238;-22
2023/08/26 06:57:23;;;;;;;15.30;8.60;;;;;;;25.49;53.12;98647.09;108902;1259;62662;-22
2023/08/26 06:59:51;;;;;;;16.30;8.60;;;;;;;25.64;52.76;98645.33;108950;1260;58830;-22
2023/08/26 07:02:18;;;;;;;18.30;8.60;;;;;;;25.89;52.27;98645.80;109015;1260;74880;-22
2023/08/26 07:04:46;;;;;;;12.50;8.10;;;;;;;26.06;51.67;98641.58;109004;1258;77910;-22
2023/08/26 07:07:15;;;;;;;13.60;7.60;;;;;;;26.13;51.61;98644.95;108969;1260;76040;-22
2023/08/26 07:09:43;;;;;;;11.60;7.60;;;;;;;26.30;51.64;98642.02;108937;1260;62010;-22
2023/08/26 07:12:12;;;;;;;10.50;6.90;;;;;;;26.40;50.26;98650.05;108987;1260;62087;-22
2023/08/26 07:14:40;;;;;;;13.50;6.90;;;;;;;26.63;49.88;98650.23;108969;1259;75881;-23
2023/08/26 07:17:08;;;;;;;8.90;5.90;;;;;;;26.73;48.47;98648.98;109024;1258;77980;-22
2023/08/26 07:19:35;;;;;;;11.20;6.50;;;;;;;26.61;48.14;98645.89;109005;1259;72719;-22
2023/08/26 07:22:03;;;;;;;11.20;5.80;;;;;;;26.61;47.83;98650.24;108997;1258;60112;-22
2023/08/26 07:24:31;;;;;;;7.90;6.10;;;;;;;26.72;48.00;98652.38;109052;1260;63437;-22
2023/08/26 07:26:59;;;;;;;7.00;5.20;;;;;;;26.76;46.85;98660.58;108944;1260;72988;-22
2023/08/26 07:29:26;;;;;;;9.60;5.30;;;;;;;26.85;46.39;98657.74;109042;1259;77995;-23
2023/08/26 07:31:54;;;;;;;13.60;5.20;;;;;;;26.98;46.66;98651.38;108965;1259;74761;-22
2023/08/26 07:34:22;;;;;;;7.60;5.40;;;;;;;27.38;46.78;98646.16;109017;1260;61144;-22
2023/08/26 07:37:43;;;;;;;6.90;4.60;;;;;;;27.89;45.66;98643.59;102623;1293;600487;-22
2023/08/26 07:40:14;;;;;;;7.40;5.10;;;;;;;28.01;45.03;98639.92;104848;1267;61069;-22
2023/08/26 07:42:43;;;;;;;10.30;5.50;;;;;;;27.71;45.40;98641.02;105127;1264;61158;-22
2023/08/26 07:45:11;;;;;;;6.90;5.20;;;;;;;27.86;46.04;98642.20;105206;1265;71040;-22
2023/08/26 07:47:41;;;;;;;11.80;5.20;;;;;;;28.08;45.95;98639.48;105168;1265;75852;-22
2023/08/26 07:50:11;;;;;;;11.70;5.30;;;;;;;28.16;45.13;98638.35;102916;1269;2994760;-23
2023/08/26 07:52:39;;;;;;;8.20;5.00;;;;;;;28.10;45.86;98639.19;105214;1260;61112;-22
2023/08/26 07:55:08;;;;;;;6.80;4.90;;;;;;;28.19;46.00;98642.31;105337;1260;61064;-22
2023/08/26 07:57:36;;;;;;;5.70;4.80;;;;;;;28.26;45.64;98644.95;105294;1265;72261;-22
2023/08/26 08:00:05;;;;;;;5.80;4.90;;;;;;;28.31;45.67;98644.02;105230;1266;78564;-22
2023/08/26 08:02:39;;;;;;;8.80;5.20;;;;;;;28.34;45.69;98646.58;105241;1261;72748;-23
2023/08/26 08:05:08;;;;;;;9.60;5.10;;;;;;;28.28;45.58;98645.17;105349;1263;63630;-23
2023/08/26 08:07:36;;;;;;;10.10;5.50;;;;;;;28.24;45.91;98646.59;105205;1266;61178;-23
2023/08/26 08:10:04;;;;;;;8.50;4.90;;;;;;;28.28;46.21;98648.13;105211;1266;76965;-22
2023/08/26 08:12:32;;;;;;;7.00;4.80;;;;;;;28.44;46.24;98655.45;105081;1260;75575;-22
2023/08/26 08:15:00;;;;;;;7.30;5.00;;;;;;;28.60;45.93;98657.01;105225;1264;75188;-23
2023/08/26 08:17:28;;;;;;;9.30;4.70;;;;;;;28.66;45.84;98652.45;105098;1263;62798;-23
2023/08/26 08:19:55;;;;;;;6.70;5.10;;;;;;;28.89;45.57;98652.09;105057;1264;61091;-24
2023/08/26 08:22:37;;;;;;;6.80;5.30;;;;;;;29.08;45.32;98653.73;104919;1264;74847;-24
2023/08/26 08:25:06;;;;;;;10.40;5.60;;;;;;;29.02;44.11;98652.13;105242;1265;74496;-23
2023/08/26 08:27:36;;;;;;;8.30;5.30;;;;;;;28.81;44.11;98651.92;105246;1264;72789;-24
2023/08/26 08:30:05;;;;;;;8.20;5.40;;;;;;;28.89;44.24;98654.77;105243;1260;61119;-24
2023/08/26 08:32:33;;;;;;;10.70;5.60;;;;;;;28.99;44.14;98657.36;105638;1254;62701;-24
2023/08/26 08:35:02;;;;;;;19.90;6.40;;;;;;;29.03;44.19;98665.13;105624;1254;75498;-24
2023/08/26 08:37:30;;;;;;;9.20;5.80;;;;;;;29.14;43.73;98668.30;105662;1254;76827;-24
2023/08/26 08:39:59;;;;;;;6.60;5.80;;;;;;;29.20;43.92;98665.88;105551;1260;76736;-23
2023/08/26 08:42:27;;;;;;;7.00;5.50;;;;;;;29.14;43.61;98656.35;105512;1254;62152;-23
2023/08/26 08:44:55;;;;;;;11.80;6.00;;;;;;;29.11;44.10;98654.79;105648;1254;61177;-23
2023/08/26 08:47:23;;;;;;;10.90;6.10;;;;;;;29.10;43.40;98651.54;105662;1258;75531;-24
2023/08/26 08:49:51;;;;;;;10.40;5.80;;;;;;;28.85;43.60;98651.45;105656;1259;73259;-23
2023/08/26 08:52:19;;;;;;;8.20;6.00;;;;;;;28.78;44.10;98642.73;105644;1259;74156;-23
2023/08/26 08:54:47;;;;;;;11.50;6.20;;;;;;;28.74;44.02;98654.08;105681;1257;64013;-24
2023/08/26 08:57:17;;;;;;;10.20;6.00;;;;;;;28.99;43.54;98652.39;105836;1257;61095;-24
2023/08/26 08:59:45;;;;;;;11.30;5.80;;;;;;;28.93;43.26;98650.79;105667;1259;74393;-24
2023/08/26 09:02:13;;;;;;;7.30;5.80;;;;;;;28.86;43.14;98652.38;105626;1254;78396;-24
2023/08/26 09:04:42;;;;;;;8.10;5.90;;;;;;;28.71;43.73;98649.77;105627;1257;72736;-23
2023/08/26 09:07:13;;;;;;;8.60;5.40;;;;;;;28.48;43.90;98640.99;105664;1254;61020;-23
2023/08/26 09:09:41;;;;;;;7.00;5.20;;;;;;;28.53;44.18;98635.05;105505;1260;61052;-23
2023/08/26 09:12:26;;;;;;;8.40;5.80;;;;;;;28.40;44.01;98632.92;105628;1255;72097;-23
2023/08/26 09:14:54;;;;;;;6.30;5.60;;;;;;;28.79;43.82;98637.96;105631;1254;76391;-23
2023/08/26 09:17:21;;;;;;;9.80;5.70;;;;;;;28.92;43.33;98646.55;105661;1257;72700;-23
2023/08/26 09:19:54;;;;;;;10.30;5.40;;;;;;;28.96;42.95;98651.50;105401;1255;64406;-24
2023/08/26 09:22:29;;;;;;;7.20;5.50;;;;;;;29.04;42.80;98652.38;105553;1255;61153;-24
2023/08/26 09:24:58;;;;;;;7.60;5.30;;;;;;;29.07;42.95;98647.03;105587;1260;75497;-23
2023/08/26 09:27:26;;;;;;;8.70;5.50;;;;;;;28.70;43.19;98639.76;105669;1254;78350;-24
2023/08/26 09:29:54;;;;;;;9.30;5.90;;;;;;;28.84;43.38;98638.95;105641;1254;71488;-24
2023/08/26 09:32:32;;;;;;;8.30;5.80;;;;;;;29.06;43.31;98635.71;105643;1254;61170;-23
2023/08/26 09:35:13;;;;;;;8.60;6.20;;;;;;;29.48;42.45;98635.58;105529;1260;61519;-23
2023/08/26 09:37:48;;;;;;;8.70;5.40;;;;;;;29.66;42.41;98637.16;105519;1260;77007;-23
2023/08/26 09:40:17;;;;;;;10.70;5.20;;;;;;;29.57;41.97;98639.32;105279;1254;74422;-22
2023/08/26 09:42:44;;;;;;;9.00;5.70;;;;;;;29.71;41.89;98642.77;105454;1259;75187;-23
2023/08/26 09:45:17;;;;;;;8.30;5.20;;;;;;;29.59;41.46;98640.50;105598;1254;61113;-23
2023/08/26 09:47:47;;;;;;;9.20;5.50;;;;;;;29.40;41.79;98635.08;105665;1261;63913;-22
2023/08/26 09:50:15;;;;;;;10.40;5.00;;;;;;;29.41;41.58;98634.69;105631;1254;75459;-23
2023/08/26 09:52:47;;;;;;;6.10;4.30;;;;;;;29.30;41.47;98643.11;105614;1259;74456;-23
2023/08/26 09:55:14;;;;;;;4.90;4.50;;;;;;;29.19;41.74;98641.96;105638;1260;71448;-23
2023/08/26 09:57:46;;;;;;;9.50;4.50;;;;;;;29.16;42.01;98643.29;105680;1254;61498;-22
2023/08/26 10:00:19;;;;;;;6.70;4.50;;;;;;;29.27;41.60;98643.35;105680;1254;61182;-23
2023/08/26 10:02:49;;;;;;;8.10;4.70;;;;;;;29.10;41.59;98648.77;105644;1255;72004;-22
2023/08/26 10:05:21;;;;;;;7.90;4.70;;;;;;;29.16;41.86;98645.84;105643;1254;76173;-23
2023/08/26 10:07:50;;;;;;;7.80;4.50;;;;;;;29.19;41.59;98648.13;105690;1254;76637;-23
2023/08/26 10:10:55;;;;;;;9.50;4.10;;;;;;;29.21;41.54;98656.71;105447;1257;61477;-22
2023/08/26 10:13:24;;;;;;;7.50;4.20;;;;;;;29.11;42.01;98653.27;105340;1254;61184;-23
2023/08/26 10:15:52;;;;;;;8.40;4.30;;;;;;;29.14;42.11;98652.70;105352;1253;74885;-24
2023/08/26 10:18:47;;;;;;;5.60;4.20;;;;;;;29.14;42.11;98651.52;105469;1254;76775;-23
2023/08/26 10:21:15;;;;;;;6.70;4.60;;;;;;;29.26;42.28;98646.19;105551;1259;75189;-23
2023/08/26 10:23:43;;;;;;;4.80;4.30;;;;;;;29.18;42.28;98646.85;105690;1254;62514;-23
2023/08/26 10:26:11;;;;;;;4.70;4.10;;;;;;;29.59;42.11;98638.79;105664;1259;61169;-23
2023/08/26 10:28:40;;;;;;;7.30;4.40;;;;;;;30.00;41.45;98638.86;105587;1256;75784;-23
2023/08/26 10:31:08;;;;;;;9.20;5.00;;;;;;;30.04;40.93;98638.04;105700;1260;74442;-23
2023/08/26 10:34:02;;;;;;;7.60;4.50;;;;;;;30.43;40.36;98635.66;105565;1257;75219;-23
2023/08/26 10:36:33;;;;;;;7.10;4.60;;;;;;;31.12;39.89;98628.48;105556;1255;61228;-23
2023/08/26 10:39:01;;;;;;;6.00;4.60;;;;;;;31.49;38.50;98629.56;105306;1260;61106;-22
2023/08/26 10:41:29;;;;;;;5.80;4.30;;;;;;;31.25;38.97;98627.36;105490;1255;65955;-23
2023/08/26 10:44:01;;;;;;;5.80;4.30;;;;;;;31.37;38.63;98622.65;105716;1259;65497;-23
2023/08/26 10:54:17;;;;;;;6.30;4.00;;;;;;;31.78;37.14;98631.67;102572;1295;599494;-22
2023/08/26 10:56:44;;;;;;;12.00;3.90;;;;;;;32.06;36.63;98628.16;104735;1267;61116;-22
2023/08/26 10:59:12;;;;;;;8.90;4.30;;;;;;;31.76;37.12;98629.69;104726;1266;61199;-22
2023/08/26 11:01:42;;;;;;;6.20;3.70;;;;;;;31.57;37.71;98630.23;104846;1266;65765;-22
2023/08/26 11:04:10;;;;;;;5.90;4.30;;;;;;;31.58;37.80;98625.28;104829;1267;68389;-23
2023/08/26 11:06:39;;;;;;;9.60;4.60;;;;;;;32.14;37.01;98618.96;104685;1267;65240;-23
2023/08/26 11:09:07;;;;;;;11.20;4.00;;;;;;;32.48;36.18;98608.32;101615;1270;61246;-22
2023/08/26 11:11:35;;;;;;;9.10;4.30;;;;;;;32.78;35.58;98600.77;104792;1272;63469;-22
2023/08/26 11:14:03;;;;;;;6.20;4.40;;;;;;;33.11;34.92;98604.50;104901;1269;66830;-22
2023/08/26 11:16:30;;;;;;;9.50;4.60;;;;;;;33.10;34.92;98600.41;104782;1266;64693;-22
2023/08/26 11:18:58;;;;;;;8.00;3.90;;;;;;;33.08;35.24;98591.76;104727;1266;61089;-22
2023/08/26 11:21:26;;;;;;;6.40;3.80;;;;;;;33.11;35.16;98583.91;104761;1266;61259;-22
2023/08/26 11:23:54;;;;;;;6.30;4.30;;;;;;;33.07;35.35;98580.83;104841;1267;65679;-22
2023/08/26 11:26:23;;;;;;;7.50;4.20;;;;;;;32.93;35.27;98581.52;105368;1257;65898;-22
2023/08/26 11:28:51;;;;;;;5.50;4.00;;;;;;;33.02;35.03;98582.83;105182;1264;65654;-23
2023/08/26 11:31:19;;;;;;;5.10;4.20;;;;;;;33.24;35.05;98584.52;105337;1257;61160;-22
2023/08/26 11:33:48;;;;;;;7.40;4.10;;;;;;;33.36;34.88;98586.23;105176;1260;61115;-22
2023/08/26 11:36:20;;;;;;;5.40;3.30;;;;;;;33.28;35.07;98588.36;105490;1262;67285;-22
2023/08/26 11:38:48;;;;;;;7.70;4.60;;;;;;;33.00;35.33;98584.98;105281;1257;68284;-22
2023/08/26 11:41:15;;;;;;;5.90;4.10;;;;;;;33.00;35.33;98582.46;105176;1260;66082;-22
2023/08/26 11:43:43;;;;;;;5.30;3.80;;;;;;;32.90;35.57;98577.17;105071;1264;61123;-23
2023/08/26 11:46:11;;;;;;;4.40;3.60;;;;;;;33.02;35.75;98573.48;105374;1260;61196;-22